createdAt,value
2023-02-11T00:06:19.244Z,21.70
2023-02-11T00:10:45.006Z,23.43
2023-02-11T00:15:03.904Z,26.63
2023-02-11T00:19:11.696Z,22.85
2023-02-11T00:23:38.803Z,23.67
2023-02-11T00:32:26.093Z,24.13
2023-02-11T00:36:35.759Z,22.05
2023-02-11T00:41:13.052Z,23.45
2023-02-11T01:00:07.947Z,21.48
2023-02-11T01:13:46.276Z,23.50
2023-02-11T01:18:16.265Z,23.67
2023-02-11T01:33:10.159Z,23.70
2023-02-11T01:42:54.543Z,25.30
2023-02-11T02:06:54.569Z,25.13
2023-02-11T02:11:03.356Z,24.05
2023-02-11T02:16:26.397Z,23.33
2023-02-11T02:26:29.104Z,21.98
2023-02-11T02:36:09.127Z,22.95
2023-02-11T02:40:37.741Z,22.33
2023-02-11T02:45:08.102Z,23.90
2023-02-11T02:59:27.529Z,24.30
2023-02-11T03:03:48.098Z,23.75
2023-02-11T03:13:06.149Z,22.05
2023-02-11T03:18:08.422Z,20.55
2023-02-11T03:23:05.612Z,19.85
2023-02-11T04:43:05.383Z,21.63
2023-02-11T04:52:10.892Z,21.30
2023-02-11T04:56:39.910Z,20.13
2023-02-11T05:00:53.368Z,20.98
2023-02-11T05:05:10.223Z,21.00
2023-02-11T05:09:20.433Z,19.58
2023-02-11T05:17:40.521Z,19.10
2023-02-11T05:22:01.305Z,19.20
2023-02-11T05:26:11.443Z,21.77
2023-02-11T05:30:26.505Z,21.38
2023-02-11T05:39:07.487Z,20.77
2023-02-11T05:43:12.015Z,21.30
2023-02-11T05:47:37.074Z,21.10
2023-02-11T05:52:27.904Z,20.15
2023-02-11T07:10:44.759Z,19.25
2023-02-11T07:15:04.270Z,20.38
2023-02-11T07:19:39.438Z,19.75
2023-02-11T07:24:09.658Z,18.38
2023-02-11T07:28:28.079Z,19.70
2023-02-11T08:08:41.658Z,20.40
2023-02-11T08:18:53.614Z,19.77
2023-02-11T08:24:00.215Z,20.27
2023-02-11T08:42:11.497Z,17.60
2023-02-11T08:47:17.072Z,17.40
2023-02-11T08:56:56.233Z,18.55
2023-02-11T09:01:21.064Z,18.52
2023-02-11T09:06:15.326Z,17.27
2023-02-11T09:20:20.350Z,18.20
2023-02-11T09:25:35.119Z,16.60
2023-02-11T09:34:51.186Z,16.95
2023-02-11T09:55:17.950Z,15.93
2023-02-11T09:59:59.475Z,14.45
2023-02-11T10:08:48.308Z,13.55
2023-02-11T11:05:01.036Z,10.48
2023-02-11T11:09:42.696Z,9.82
2023-02-11T11:23:31.603Z,11.32
2023-02-11T11:27:33.210Z,9.35
2023-02-11T11:31:37.825Z,9.30
2023-02-11T11:35:39.354Z,10.38
2023-02-11T11:39:41.501Z,10.13
2023-02-11T11:43:59.820Z,10.48
2023-02-11T11:48:34.645Z,11.50
2023-02-11T11:53:16.588Z,10.82
2023-02-11T11:57:22.748Z,10.40
2023-02-11T12:02:05.303Z,11.13
2023-02-11T12:06:20.566Z,9.93
2023-02-11T12:10:30.183Z,9.82
2023-02-11T12:14:37.819Z,10.10
2023-02-11T12:19:22.265Z,9.27
2023-02-11T12:23:38.864Z,8.75
2023-02-11T12:28:09.371Z,7.90
2023-02-11T12:32:27.033Z,8.18
2023-02-11T12:40:48.827Z,6.60
2023-02-11T12:45:05.220Z,7.65
2023-02-11T12:49:29.312Z,5.75
2023-02-11T12:53:44.745Z,6.60
2023-02-11T12:57:46.475Z,9.57
2023-02-11T13:01:50.182Z,7.90
2023-02-11T13:05:59.242Z,9.50
2023-02-11T13:10:14.275Z,9.40
2023-02-11T13:14:25.384Z,10.13
2023-02-11T13:18:52.903Z,8.88
2023-02-11T13:27:23.143Z,9.73
2023-02-11T13:31:27.572Z,8.13
2023-02-11T13:35:35.466Z,8.13
2023-02-11T13:43:38.484Z,7.13
2023-02-11T13:47:40.976Z,7.07
2023-02-11T13:51:43.147Z,7.13
2023-02-11T13:55:51.875Z,7.35
2023-02-11T14:00:03.392Z,8.35
2023-02-11T14:04:40.646Z,7.30
2023-02-11T14:09:10.846Z,7.43
2023-02-11T14:13:29.099Z,8.05
2023-02-11T14:17:33.873Z,7.88
2023-02-11T14:21:37.862Z,7.40
2023-02-11T14:25:41.423Z,10.18
2023-02-11T14:29:49.191Z,11.05
2023-02-11T14:34:06.063Z,11.95
2023-02-11T14:38:22.959Z,9.23
2023-02-11T14:42:27.619Z,11.15
2023-02-11T14:46:33.464Z,10.85
2023-02-11T14:50:42.116Z,10.98
2023-02-11T14:54:45.015Z,11.48
2023-02-11T14:58:48.973Z,11.95
2023-02-11T15:02:50.599Z,10.48
2023-02-11T15:06:52.290Z,11.50
2023-02-11T15:10:55.544Z,12.48
2023-02-11T15:14:59.336Z,13.73
2023-02-11T15:19:04.342Z,12.60
2023-02-11T15:23:08.916Z,14.05
2023-02-11T15:27:19.409Z,10.77
2023-02-11T15:31:26.291Z,13.02
2023-02-11T15:35:31.034Z,14.17
2023-02-11T15:39:35.210Z,11.57
2023-02-11T15:43:47.975Z,10.32
2023-02-11T15:47:55.876Z,11.95
2023-02-11T15:52:00.140Z,12.68
2023-02-11T15:56:10.497Z,13.68
2023-02-11T16:00:19.773Z,13.45
2023-02-11T16:04:24.419Z,15.30
2023-02-11T16:08:31.494Z,14.18
2023-02-11T16:12:33.464Z,14.90
2023-02-11T16:16:35.256Z,13.80
2023-02-11T16:20:37.187Z,16.60
2023-02-11T16:24:39.336Z,16.08
2023-02-11T16:28:41.332Z,15.90
2023-02-11T16:32:42.903Z,16.92
2023-02-11T16:36:45.821Z,17.90
2023-02-11T16:40:50.123Z,17.40
2023-02-11T16:44:54.776Z,17.98
2023-02-11T16:48:56.985Z,17.63
2023-02-11T16:52:59.504Z,17.85
2023-02-11T16:57:05.835Z,20.05
2023-02-11T17:01:09.582Z,18.15
2023-02-11T17:05:29.513Z,18.77
2023-02-11T17:09:31.414Z,19.73
2023-02-11T17:13:39.699Z,15.93
2023-02-11T17:17:41.732Z,18.58
2023-02-11T17:21:44.099Z,17.45
2023-02-11T17:25:46.179Z,18.27
2023-02-11T17:29:47.991Z,17.88
2023-02-11T17:33:50.143Z,20.50
2023-02-11T17:37:52.082Z,18.85
2023-02-11T17:41:54.160Z,18.58
2023-02-11T17:45:55.709Z,18.17
2023-02-11T17:49:57.358Z,18.63
2023-02-11T17:54:01.675Z,17.25
2023-02-11T17:58:03.434Z,19.98
2023-02-11T18:02:05.608Z,18.50
2023-02-11T18:06:08.196Z,18.80
2023-02-11T18:10:10.210Z,19.30
2023-02-11T18:14:12.226Z,20.15
2023-02-11T18:18:13.807Z,26.30
2023-02-11T18:22:16.592Z,23.73
2023-02-11T18:26:20.682Z,20.90
2023-02-11T18:30:22.510Z,19.52
2023-02-11T18:34:26.283Z,20.42
2023-02-11T18:38:28.219Z,20.55
2023-02-11T18:42:33.021Z,21.20
2023-02-11T18:46:34.611Z,20.65
2023-02-11T18:50:36.145Z,19.80
2023-02-11T18:54:37.641Z,20.75
2023-02-11T18:58:39.900Z,19.90
2023-02-11T19:02:42.661Z,23.25
2023-02-11T19:06:49.035Z,23.15
2023-02-11T19:10:50.908Z,21.35
2023-02-11T19:14:52.680Z,21.15
2023-02-11T19:18:54.492Z,18.45
2023-02-11T19:22:55.965Z,19.08
2023-02-11T19:27:00.115Z,18.63
2023-02-11T19:31:09.229Z,19.88
2023-02-11T19:35:10.810Z,19.95
2023-02-11T19:39:12.560Z,21.67
2023-02-11T19:43:14.318Z,21.23
2023-02-11T19:47:16.374Z,20.65
2023-02-11T19:51:18.359Z,20.42
2023-02-11T19:55:20.056Z,19.40
2023-02-11T19:59:22.307Z,19.77
2023-02-11T20:03:23.942Z,19.55
2023-02-11T20:07:25.784Z,20.05
2023-02-11T20:11:29.107Z,19.75
2023-02-11T20:15:30.769Z,20.35
2023-02-11T20:19:33.231Z,20.02
2023-02-11T20:23:35.708Z,19.63
2023-02-11T20:27:37.711Z,19.88
2023-02-11T20:31:39.346Z,19.33
2023-02-11T20:35:41.083Z,18.80
2023-02-11T20:39:44.722Z,19.77
2023-02-11T20:43:48.766Z,19.77
2023-02-11T20:47:50.530Z,19.83
2023-02-11T20:51:53.792Z,20.60
2023-02-11T20:55:56.106Z,23.27
2023-02-11T20:59:57.574Z,22.17
2023-02-11T21:04:05.167Z,20.27
2023-02-11T21:08:06.909Z,18.80
2023-02-11T21:12:08.891Z,18.63
2023-02-11T21:16:14.715Z,18.67
2023-02-11T21:20:16.612Z,19.50
2023-02-11T21:24:18.375Z,19.98
2023-02-11T21:28:24.005Z,23.08
2023-02-11T21:32:25.750Z,24.58
2023-02-11T21:36:28.736Z,23.58
2023-02-11T21:40:30.560Z,24.95
2023-02-11T21:44:32.313Z,24.20
2023-02-11T21:48:34.063Z,26.48
2023-02-11T21:52:36.092Z,24.50
2023-02-11T21:56:38.040Z,25.52
2023-02-11T22:00:39.850Z,26.88
2023-02-11T22:04:41.491Z,26.88
2023-02-11T22:08:43.207Z,25.35
2023-02-11T22:12:45.309Z,22.30
2023-02-11T22:16:47.245Z,18.45
2023-02-11T22:20:59.306Z,16.85
2023-02-11T22:25:01.952Z,15.90
2023-02-11T22:29:03.932Z,16.13
2023-02-11T22:33:05.757Z,16.30
2023-02-11T22:37:07.739Z,15.63
2023-02-11T22:41:10.517Z,16.00
2023-02-11T22:45:12.014Z,16.42
2023-02-11T22:49:14.583Z,15.63
2023-02-11T22:53:16.460Z,15.68
2023-02-11T22:57:18.298Z,17.45
2023-02-11T23:01:20.249Z,17.48
2023-02-11T23:05:22.093Z,17.25
2023-02-11T23:09:23.858Z,18.85
2023-02-11T23:13:25.605Z,23.45
2023-02-11T23:17:28.989Z,24.15
2023-02-11T23:21:32.637Z,25.05
2023-02-11T23:25:34.897Z,24.95
2023-02-11T23:29:36.594Z,25.60
2023-02-11T23:33:38.629Z,26.38
2023-02-11T23:37:41.208Z,27.35
2023-02-11T23:41:42.737Z,24.40
2023-02-11T23:45:44.250Z,24.33
2023-02-11T23:49:45.767Z,26.27
2023-02-11T23:53:49.410Z,24.40
2023-02-11T23:57:51.270Z,23.98
